sensor_id;sensor_type;location;lat;lon;timestamp;pressure;altitude;pressure_sealevel;temperature;humidity
54900;BME280;40801;41.924;25.562;2022-07-01T00:01:43;99386.09;;;21.93;57.40
54900;BME280;40801;41.924;25.562;2022-07-01T00:04:09;99384.09;;;21.90;57.61
54900;BME280;40801;41.924;25.562;2022-07-01T00:06:35;99375.47;;;21.92;57.52
54900;BME280;40801;41.924;25.562;2022-07-01T00:09:01;99372.34;;;21.90;57.47
54900;BME280;40801;41.924;25.562;2022-07-01T00:11:26;99374.69;;;21.91;57.48
54900;BME280;40801;41.924;25.562;2022-07-01T00:13:52;99372.31;;;21.86;57.61
54900;BME280;40801;41.924;25.562;2022-07-01T00:16:17;99367.59;;;21.87;57.64
54900;BME280;40801;41.924;25.562;2022-07-01T00:18:43;99366.44;;;21.88;57.42
54900;BME280;40801;41.924;25.562;2022-07-01T00:21:08;99373.50;;;21.89;57.39
54900;BME280;40801;41.924;25.562;2022-07-01T00:23:34;99367.19;;;21.85;57.69
54900;BME280;40801;41.924;25.562;2022-07-01T00:25:59;99362.84;;;21.77;58.00
54900;BME280;40801;41.924;25.562;2022-07-01T00:28:25;99357.31;;;21.73;58.02
54900;BME280;40801;41.924;25.562;2022-07-01T00:30:52;99347.50;;;21.72;57.87
54900;BME280;40801;41.924;25.562;2022-07-01T00:33:17;99357.22;;;21.62;58.19
54900;BME280;40801;41.924;25.562;2022-07-01T00:35:43;99353.59;;;21.51;58.36
54900;BME280;40801;41.924;25.562;2022-07-01T00:38:09;99350.00;;;21.44;58.45
54900;BME280;40801;41.924;25.562;2022-07-01T00:40:34;99347.97;;;21.37;58.43
54900;BME280;40801;41.924;25.562;2022-07-01T00:43:00;99353.72;;;21.25;58.75
54900;BME280;40801;41.924;25.562;2022-07-01T00:45:25;99356.84;;;21.23;58.95
54900;BME280;40801;41.924;25.562;2022-07-01T00:47:51;99349.31;;;21.17;59.37
54900;BME280;40801;41.924;25.562;2022-07-01T00:50:16;99339.50;;;21.16;59.18
54900;BME280;40801;41.924;25.562;2022-07-01T00:52:43;99347.31;;;21.14;59.23
54900;BME280;40801;41.924;25.562;2022-07-01T00:55:14;99346.16;;;21.15;59.73
54900;BME280;40801;41.924;25.562;2022-07-01T00:57:41;99352.41;;;21.12;59.27
54900;BME280;40801;41.924;25.562;2022-07-01T01:00:16;99350.34;;;21.05;60.55
54900;BME280;40801;41.924;25.562;2022-07-01T01:02:45;99351.41;;;20.93;59.99
54900;BME280;40801;41.924;25.562;2022-07-01T01:05:11;99355.31;;;20.92;60.04
54900;BME280;40801;41.924;25.562;2022-07-01T01:07:36;99356.56;;;20.98;59.61
54900;BME280;40801;41.924;25.562;2022-07-01T01:10:03;99355.72;;;20.94;59.91
54900;BME280;40801;41.924;25.562;2022-07-01T01:12:29;99358.09;;;20.96;59.86
54900;BME280;40801;41.924;25.562;2022-07-01T01:14:56;99360.84;;;20.96;59.53
54900;BME280;40801;41.924;25.562;2022-07-01T01:17:22;99356.66;;;20.76;60.30
54900;BME280;40801;41.924;25.562;2022-07-01T01:19:49;99354.25;;;20.70;60.22
54900;BME280;40801;41.924;25.562;2022-07-01T01:22:16;99345.63;;;20.68;60.10
54900;BME280;40801;41.924;25.562;2022-07-01T01:24:44;99347.53;;;20.64;60.17
54900;BME280;40801;41.924;25.562;2022-07-01T01:27:11;99331.47;;;20.63;60.01
54900;BME280;40801;41.924;25.562;2022-07-01T01:29:37;99339.28;;;20.61;60.09
54900;BME280;40801;41.924;25.562;2022-07-01T01:32:04;99345.47;;;20.54;60.05
54900;BME280;40801;41.924;25.562;2022-07-01T01:34:31;99344.88;;;20.41;59.96
54900;BME280;40801;41.924;25.562;2022-07-01T01:36:57;99333.81;;;20.34;60.11
54900;BME280;40801;41.924;25.562;2022-07-01T01:39:23;99345.56;;;20.35;59.86
54900;BME280;40801;41.924;25.562;2022-07-01T01:41:48;99353.34;;;20.33;59.67
54900;BME280;40801;41.924;25.562;2022-07-01T01:44:14;99350.09;;;20.24;59.49
54900;BME280;40801;41.924;25.562;2022-07-01T01:46:39;99348.88;;;20.21;59.29
54900;BME280;40801;41.924;25.562;2022-07-01T01:49:05;99350.81;;;20.21;59.40
54900;BME280;40801;41.924;25.562;2022-07-01T01:51:31;99337.88;;;20.18;59.15
54900;BME280;40801;41.924;25.562;2022-07-01T01:53:57;99347.56;;;20.11;59.36
54900;BME280;40801;41.924;25.562;2022-07-01T01:56:23;99343.94;;;20.04;59.51
54900;BME280;40801;41.924;25.562;2022-07-01T01:58:49;99348.59;;;20.00;59.53
54900;BME280;40801;41.924;25.562;2022-07-01T02:01:15;99350.47;;;19.96;59.49
54900;BME280;40801;41.924;25.562;2022-07-01T02:03:42;99351.28;;;19.96;59.39
54900;BME280;40801;41.924;25.562;2022-07-01T02:06:09;99367.38;;;20.01;59.11
54900;BME280;40801;41.924;25.562;2022-07-01T02:08:38;99374.00;;;20.00;59.01
54900;BME280;40801;41.924;25.562;2022-07-01T02:11:04;99390.00;;;19.98;59.22
54900;BME280;40801;41.924;25.562;2022-07-01T02:13:30;99382.53;;;19.95;59.24
54900;BME280;40801;41.924;25.562;2022-07-01T02:15:56;99376.25;;;19.95;59.13
54900;BME280;40801;41.924;25.562;2022-07-01T02:18:22;99385.34;;;19.99;59.20
54900;BME280;40801;41.924;25.562;2022-07-01T02:20:48;99388.06;;;19.99;59.38
54900;BME280;40801;41.924;25.562;2022-07-01T02:23:13;99376.25;;;19.95;59.50
54900;BME280;40801;41.924;25.562;2022-07-01T02:25:40;99368.84;;;19.95;59.39
54900;BME280;40801;41.924;25.562;2022-07-01T02:28:05;99375.13;;;19.96;59.34
54900;BME280;40801;41.924;25.562;2022-07-01T02:30:30;99378.94;;;19.91;59.44
54900;BME280;40801;41.924;25.562;2022-07-01T02:33:00;99378.78;;;19.80;59.94
54900;BME280;40801;41.924;25.562;2022-07-01T02:35:26;99380.28;;;19.78;60.05
54900;BME280;40801;41.924;25.562;2022-07-01T02:37:51;99374.34;;;19.72;60.16
54900;BME280;40801;41.924;25.562;2022-07-01T02:40:17;99384.13;;;19.73;60.08
54900;BME280;40801;41.924;25.562;2022-07-01T02:42:42;99383.72;;;19.71;59.98
54900;BME280;40801;41.924;25.562;2022-07-01T02:45:08;99382.50;;;19.69;60.04
54900;BME280;40801;41.924;25.562;2022-07-01T02:47:34;99381.50;;;19.58;60.37
54900;BME280;40801;41.924;25.562;2022-07-01T02:50:00;99379.78;;;19.49;60.80
54900;BME280;40801;41.924;25.562;2022-07-01T02:52:26;99387.97;;;19.49;60.66
54900;BME280;40801;41.924;25.562;2022-07-01T02:54:52;99394.97;;;19.47;60.79
54900;BME280;40801;41.924;25.562;2022-07-01T02:57:18;99396.88;;;19.43;60.67
54900;BME280;40801;41.924;25.562;2022-07-01T02:59:43;99401.75;;;19.53;60.43
54900;BME280;40801;41.924;25.562;2022-07-01T03:02:09;99400.28;;;19.59;59.94
54900;BME280;40801;41.924;25.562;2022-07-01T03:04:34;99405.53;;;19.68;59.76
54900;BME280;40801;41.924;25.562;2022-07-01T03:06:59;99408.69;;;19.70;60.00
54900;BME280;40801;41.924;25.562;2022-07-01T03:09:25;99406.59;;;19.63;60.41
54900;BME280;40801;41.924;25.562;2022-07-01T03:11:51;99411.72;;;19.65;60.20
54900;BME280;40801;41.924;25.562;2022-07-01T03:14:17;99405.44;;;19.64;60.25
54900;BME280;40801;41.924;25.562;2022-07-01T03:16:42;99408.91;;;19.61;60.57
54900;BME280;40801;41.924;25.562;2022-07-01T03:19:08;99404.59;;;19.60;60.54
54900;BME280;40801;41.924;25.562;2022-07-01T03:21:34;99410.56;;;19.66;60.45
54900;BME280;40801;41.924;25.562;2022-07-01T03:24:00;99414.03;;;19.63;60.55
54900;BME280;40801;41.924;25.562;2022-07-01T03:26:25;99408.91;;;19.61;60.64
54900;BME280;40801;41.924;25.562;2022-07-01T03:28:51;99408.28;;;19.68;60.65
54900;BME280;40801;41.924;25.562;2022-07-01T03:31:16;99404.06;;;19.74;60.31
54900;BME280;40801;41.924;25.562;2022-07-01T03:33:41;99406.44;;;19.75;60.49
54900;BME280;40801;41.924;25.562;2022-07-01T03:36:07;99412.72;;;19.76;60.44
54900;BME280;40801;41.924;25.562;2022-07-01T03:38:32;99415.50;;;19.79;60.58
54900;BME280;40801;41.924;25.562;2022-07-01T03:40:58;99425.41;;;19.88;60.07
54900;BME280;40801;41.924;25.562;2022-07-01T03:43:23;99423.50;;;19.92;60.07
54900;BME280;40801;41.924;25.562;2022-07-01T03:45:49;99425.97;;;19.97;59.96
54900;BME280;40801;41.924;25.562;2022-07-01T03:48:14;99431.56;;;20.04;59.49
54900;BME280;40801;41.924;25.562;2022-07-01T03:50:41;99428.50;;;20.09;59.57
54900;BME280;40801;41.924;25.562;2022-07-01T03:53:06;99431.44;;;20.23;59.01
54900;BME280;40801;41.924;25.562;2022-07-01T03:55:50;99424.19;;;20.34;58.68
54900;BME280;40801;41.924;25.562;2022-07-01T03:58:16;99421.22;;;20.43;58.68
54900;BME280;40801;41.924;25.562;2022-07-01T04:00:41;99417.84;;;20.53;58.44
54900;BME280;40801;41.924;25.562;2022-07-01T04:03:07;99417.94;;;20.60;58.52
54900;BME280;40801;41.924;25.562;2022-07-01T04:05:36;99415.75;;;20.73;58.34
54900;BME280;40801;41.924;25.562;2022-07-01T04:08:03;99421.44;;;20.87;58.15
54900;BME280;40801;41.924;25.562;2022-07-01T04:10:30;99426.25;;;20.97;58.01
54900;BME280;40801;41.924;25.562;2022-07-01T04:12:58;99423.69;;;21.12;57.34
54900;BME280;40801;41.924;25.562;2022-07-01T04:15:24;99422.31;;;21.25;56.92
54900;BME280;40801;41.924;25.562;2022-07-01T04:17:50;99429.84;;;21.35;57.08
54900;BME280;40801;41.924;25.562;2022-07-01T04:20:15;99428.06;;;21.50;56.90
54900;BME280;40801;41.924;25.562;2022-07-01T04:22:41;99422.72;;;21.68;56.72
54900;BME280;40801;41.924;25.562;2022-07-01T04:25:06;99420.53;;;21.84;56.19
54900;BME280;40801;41.924;25.562;2022-07-01T04:27:32;99418.75;;;22.02;55.54
54900;BME280;40801;41.924;25.562;2022-07-01T04:29:58;99419.66;;;22.20;55.12
54900;BME280;40801;41.924;25.562;2022-07-01T04:32:24;99422.97;;;22.40;55.01
54900;BME280;40801;41.924;25.562;2022-07-01T04:34:49;99418.78;;;22.61;54.76
54900;BME280;40801;41.924;25.562;2022-07-01T04:37:16;99424.38;;;22.82;54.42
54900;BME280;40801;41.924;25.562;2022-07-01T04:39:41;99420.94;;;22.99;54.42
54900;BME280;40801;41.924;25.562;2022-07-01T04:42:07;99426.91;;;23.15;54.26
54900;BME280;40801;41.924;25.562;2022-07-01T04:44:36;99432.44;;;23.37;53.88
54900;BME280;40801;41.924;25.562;2022-07-01T04:47:01;99429.34;;;23.49;53.29
54900;BME280;40801;41.924;25.562;2022-07-01T04:49:28;99432.16;;;23.67;53.00
54900;BME280;40801;41.924;25.562;2022-07-01T04:51:54;99431.78;;;23.83;52.46
54900;BME280;40801;41.924;25.562;2022-07-01T04:54:19;99434.13;;;23.98;51.81
54900;BME280;40801;41.924;25.562;2022-07-01T04:56:45;99442.81;;;24.11;51.65
54900;BME280;40801;41.924;25.562;2022-07-01T04:59:12;99434.94;;;24.20;51.20
54900;BME280;40801;41.924;25.562;2022-07-01T05:01:38;99434.56;;;24.32;50.94
54900;BME280;40801;41.924;25.562;2022-07-01T05:04:04;99435.69;;;24.53;51.17
54900;BME280;40801;41.924;25.562;2022-07-01T05:06:29;99440.38;;;24.74;50.20
54900;BME280;40801;41.924;25.562;2022-07-01T05:08:55;99425.38;;;24.89;50.22
54900;BME280;40801;41.924;25.562;2022-07-01T05:11:21;99432.03;;;24.95;49.82
54900;BME280;40801;41.924;25.562;2022-07-01T05:13:46;99430.78;;;25.14;49.06
54900;BME280;40801;41.924;25.562;2022-07-01T05:16:11;99429.56;;;25.29;48.81
54900;BME280;40801;41.924;25.562;2022-07-01T05:18:37;99438.16;;;25.42;48.41
54900;BME280;40801;41.924;25.562;2022-07-01T05:21:22;99436.91;;;25.53;48.11
54900;BME280;40801;41.924;25.562;2022-07-01T05:24:06;99437.63;;;25.64;47.90
54900;BME280;40801;41.924;25.562;2022-07-01T05:26:32;99434.41;;;25.77;47.71
54900;BME280;40801;41.924;25.562;2022-07-01T05:28:58;99436.28;;;25.90;47.61
54900;BME280;40801;41.924;25.562;2022-07-01T05:31:23;99430.66;;;26.01;47.17
54900;BME280;40801;41.924;25.562;2022-07-01T05:33:49;99423.50;;;26.11;46.62
54900;BME280;40801;41.924;25.562;2022-07-01T05:36:14;99423.00;;;26.19;46.09
54900;BME280;40801;41.924;25.562;2022-07-01T05:38:40;99425.78;;;26.19;45.93
54900;BME280;40801;41.924;25.562;2022-07-01T05:41:06;99433.53;;;26.39;45.93
54900;BME280;40801;41.924;25.562;2022-07-01T05:43:32;99422.38;;;26.46;46.10
54900;BME280;40801;41.924;25.562;2022-07-01T05:45:58;99427.84;;;26.53;45.92
54900;BME280;40801;41.924;25.562;2022-07-01T05:48:24;99429.28;;;26.68;46.01
54900;BME280;40801;41.924;25.562;2022-07-01T05:50:50;99431.03;;;26.89;45.38
54900;BME280;40801;41.924;25.562;2022-07-01T05:53:16;99428.47;;;27.05;45.06
54900;BME280;40801;41.924;25.562;2022-07-01T05:55:41;99428.25;;;27.23;44.81
54900;BME280;40801;41.924;25.562;2022-07-01T05:58:07;99433.22;;;27.35;44.48
54900;BME280;40801;41.924;25.562;2022-07-01T06:00:34;99437.38;;;27.51;44.62
54900;BME280;40801;41.924;25.562;2022-07-01T06:03:00;99434.41;;;27.61;43.87
54900;BME280;40801;41.924;25.562;2022-07-01T06:05:25;99440.97;;;27.74;43.13
54900;BME280;40801;41.924;25.562;2022-07-01T06:07:51;99443.66;;;27.82;42.63
54900;BME280;40801;41.924;25.562;2022-07-01T06:10:17;99446.66;;;27.91;42.28
54900;BME280;40801;41.924;25.562;2022-07-01T06:12:42;99443.28;;;28.03;42.03
54900;BME280;40801;41.924;25.562;2022-07-01T06:15:10;99436.09;;;28.09;41.60
54900;BME280;40801;41.924;25.562;2022-07-01T06:17:37;99438.31;;;28.18;41.62
54900;BME280;40801;41.924;25.562;2022-07-01T06:20:04;99436.84;;;28.36;41.69
54900;BME280;40801;41.924;25.562;2022-07-01T06:22:30;99429.81;;;28.52;41.51
54900;BME280;40801;41.924;25.562;2022-07-01T06:24:56;99436.06;;;28.56;40.97
54900;BME280;40801;41.924;25.562;2022-07-01T06:27:21;99436.09;;;28.76;41.26
54900;BME280;40801;41.924;25.562;2022-07-01T06:29:47;99442.81;;;28.98;41.40
54900;BME280;40801;41.924;25.562;2022-07-01T06:32:12;99435.03;;;29.09;40.45
54900;BME280;40801;41.924;25.562;2022-07-01T06:34:38;99436.44;;;29.17;40.38
54900;BME280;40801;41.924;25.562;2022-07-01T06:37:04;99436.41;;;29.21;40.07
54900;BME280;40801;41.924;25.562;2022-07-01T06:39:30;99442.56;;;29.28;40.35
54900;BME280;40801;41.924;25.562;2022-07-01T06:41:56;99439.19;;;29.21;39.46
54900;BME280;40801;41.924;25.562;2022-07-01T06:44:21;99441.63;;;29.35;39.72
54900;BME280;40801;41.924;25.562;2022-07-01T06:46:47;99432.66;;;29.47;39.22
54900;BME280;40801;41.924;25.562;2022-07-01T06:49:13;99442.50;;;29.52;38.85
54900;BME280;40801;41.924;25.562;2022-07-01T06:51:38;99433.56;;;29.60;39.07
54900;BME280;40801;41.924;25.562;2022-07-01T06:54:04;99438.41;;;29.56;39.38
54900;BME280;40801;41.924;25.562;2022-07-01T06:56:30;99435.63;;;29.73;39.35
54900;BME280;40801;41.924;25.562;2022-07-01T06:58:56;99429.38;;;30.01;39.22
54900;BME280;40801;41.924;25.562;2022-07-01T07:01:21;99432.03;;;30.08;38.65
54900;BME280;40801;41.924;25.562;2022-07-01T07:03:47;99436.88;;;30.04;38.32
54900;BME280;40801;41.924;25.562;2022-07-01T07:06:12;99439.41;;;30.15;39.05
54900;BME280;40801;41.924;25.562;2022-07-01T07:08:38;99436.63;;;30.15;38.75
54900;BME280;40801;41.924;25.562;2022-07-01T07:11:03;99438.69;;;30.43;38.46
54900;BME280;40801;41.924;25.562;2022-07-01T07:13:29;99437.94;;;30.56;37.78
54900;BME280;40801;41.924;25.562;2022-07-01T07:15:55;99438.25;;;30.45;37.10
54900;BME280;40801;41.924;25.562;2022-07-01T07:18:20;99435.59;;;30.54;37.37
54900;BME280;40801;41.924;25.562;2022-07-01T07:20:46;99446.53;;;30.77;37.62
54900;BME280;40801;41.924;25.562;2022-07-01T07:23:15;99447.78;;;30.89;37.44
54900;BME280;40801;41.924;25.562;2022-07-01T07:25:40;99446.28;;;31.01;37.21
54900;BME280;40801;41.924;25.562;2022-07-01T07:28:06;99438.53;;;31.21;36.57
54900;BME280;40801;41.924;25.562;2022-07-01T07:30:31;99443.56;;;31.39;36.47
54900;BME280;40801;41.924;25.562;2022-07-01T07:32:57;99439.13;;;31.41;36.54
54900;BME280;40801;41.924;25.562;2022-07-01T07:35:22;99434.78;;;31.40;36.48
54900;BME280;40801;41.924;25.562;2022-07-01T07:37:48;99437.00;;;31.46;36.95
54900;BME280;40801;41.924;25.562;2022-07-01T07:40:13;99440.59;;;31.59;36.85
54900;BME280;40801;41.924;25.562;2022-07-01T07:42:44;99436.78;;;31.78;37.16
54900;BME280;40801;41.924;25.562;2022-07-01T07:45:11;99429.13;;;31.82;36.36
54900;BME280;40801;41.924;25.562;2022-07-01T07:47:44;99434.59;;;31.86;37.00
54900;BME280;40801;41.924;25.562;2022-07-01T07:50:11;99433.56;;;31.92;36.88
54900;BME280;40801;41.924;25.562;2022-07-01T07:52:37;99430.78;;;31.92;36.22
54900;BME280;40801;41.924;25.562;2022-07-01T07:55:03;99442.34;;;32.03;36.33
54900;BME280;40801;41.924;25.562;2022-07-01T07:57:29;99438.91;;;31.99;36.69
54900;BME280;40801;41.924;25.562;2022-07-01T07:59:55;99435.72;;;32.23;36.71
54900;BME280;40801;41.924;25.562;2022-07-01T08:02:21;99432.56;;;32.46;36.32
54900;BME280;40801;41.924;25.562;2022-07-01T08:04:46;99437.38;;;32.46;35.85
54900;BME280;40801;41.924;25.562;2022-07-01T08:07:12;99431.84;;;32.55;35.48
54900;BME280;40801;41.924;25.562;2022-07-01T08:09:37;99438.69;;;32.76;35.62
54900;BME280;40801;41.924;25.562;2022-07-01T08:12:03;99440.94;;;32.81;35.06
54900;BME280;40801;41.924;25.562;2022-07-01T08:14:29;99435.34;;;32.81;34.48
54900;BME280;40801;41.924;25.562;2022-07-01T08:16:54;99441.06;;;32.99;34.35
54900;BME280;40801;41.924;25.562;2022-07-01T08:19:20;99442.66;;;33.09;34.00
54900;BME280;40801;41.924;25.562;2022-07-01T08:21:45;99438.19;;;33.12;33.92
54900;BME280;40801;41.924;25.562;2022-07-01T08:24:11;99439.22;;;33.27;33.47
54900;BME280;40801;41.924;25.562;2022-07-01T08:26:36;99434.78;;;33.39;33.29
54900;BME280;40801;41.924;25.562;2022-07-01T08:29:02;99436.34;;;33.40;33.63
54900;BME280;40801;41.924;25.562;2022-07-01T08:31:28;99430.78;;;33.49;33.52
54900;BME280;40801;41.924;25.562;2022-07-01T08:33:54;99429.31;;;33.66;32.82
54900;BME280;40801;41.924;25.562;2022-07-01T08:36:20;99425.59;;;33.78;32.55
54900;BME280;40801;41.924;25.562;2022-07-01T08:38:46;99428.78;;;33.99;32.80
54900;BME280;40801;41.924;25.562;2022-07-01T08:41:13;99425.41;;;34.22;32.82
54900;BME280;40801;41.924;25.562;2022-07-01T08:43:39;99423.88;;;34.30;32.50
54900;BME280;40801;41.924;25.562;2022-07-01T08:46:07;99418.75;;;34.65;31.88
54900;BME280;40801;41.924;25.562;2022-07-01T08:48:33;99425.28;;;34.81;31.50
54900;BME280;40801;41.924;25.562;2022-07-01T08:50:59;99414.84;;;35.08;30.54
54900;BME280;40801;41.924;25.562;2022-07-01T08:53:29;99415.97;;;35.44;30.64
54900;BME280;40801;41.924;25.562;2022-07-01T08:55:55;99419.00;;;35.64;30.10
54900;BME280;40801;41.924;25.562;2022-07-01T08:58:39;99415.78;;;35.90;30.11
54900;BME280;40801;41.924;25.562;2022-07-01T09:01:12;99421.69;;;36.16;29.50
54900;BME280;40801;41.924;25.562;2022-07-01T09:03:38;99419.84;;;36.37;29.64
54900;BME280;40801;41.924;25.562;2022-07-01T09:06:14;99421.44;;;36.67;28.24
54900;BME280;40801;41.924;25.562;2022-07-01T09:08:41;99414.72;;;37.03;28.00
54900;BME280;40801;41.924;25.562;2022-07-01T09:13:42;99411.09;;;37.47;26.94
54900;BME280;40801;41.924;25.562;2022-07-01T09:16:12;99412.56;;;37.42;27.13
54900;BME280;40801;41.924;25.562;2022-07-01T09:18:38;99412.22;;;37.70;27.23
54900;BME280;40801;41.924;25.562;2022-07-01T09:21:07;99404.19;;;37.98;26.55
54900;BME280;40801;41.924;25.562;2022-07-01T09:23:33;99409.06;;;38.38;26.70
54900;BME280;40801;41.924;25.562;2022-07-01T09:25:59;99399.25;;;38.54;25.94
54900;BME280;40801;41.924;25.562;2022-07-01T09:28:25;99394.84;;;38.73;25.07
54900;BME280;40801;41.924;25.562;2022-07-01T09:30:54;99405.28;;;38.93;24.04
54900;BME280;40801;41.924;25.562;2022-07-01T09:33:24;99390.16;;;39.22;23.37
54900;BME280;40801;41.924;25.562;2022-07-01T09:35:49;99405.00;;;39.17;23.14
54900;BME280;40801;41.924;25.562;2022-07-01T09:38:17;99397.72;;;39.36;23.27
54900;BME280;40801;41.924;25.562;2022-07-01T09:40:51;99409.06;;;39.79;22.40
54900;BME280;40801;41.924;25.562;2022-07-01T09:43:25;99403.03;;;39.97;22.04
54900;BME280;40801;41.924;25.562;2022-07-01T09:46:00;99402.97;;;39.91;21.33
54900;BME280;40801;41.924;25.562;2022-07-01T09:50:58;99393.59;;;40.17;22.01
54900;BME280;40801;41.924;25.562;2022-07-01T09:53:23;99394.66;;;40.31;21.32
54900;BME280;40801;41.924;25.562;2022-07-01T09:55:49;99383.38;;;40.36;21.45
54900;BME280;40801;41.924;25.562;2022-07-01T09:58:14;99381.16;;;40.51;20.72
54900;BME280;40801;41.924;25.562;2022-07-01T10:00:40;99378.81;;;40.50;20.58
54900;BME280;40801;41.924;25.562;2022-07-01T10:03:06;99367.69;;;40.24;21.22
54900;BME280;40801;41.924;25.562;2022-07-01T10:12:18;99369.38;;;41.03;20.30
54900;BME280;40801;41.924;25.562;2022-07-01T10:14:48;99368.09;;;41.10;21.16
54900;BME280;40801;41.924;25.562;2022-07-01T10:17:44;99365.00;;;40.80;21.31
54900;BME280;40801;41.924;25.562;2022-07-01T10:20:16;99364.22;;;40.96;21.56
54900;BME280;40801;41.924;25.562;2022-07-01T10:22:43;99362.94;;;41.31;20.97
54900;BME280;40801;41.924;25.562;2022-07-01T10:28:39;99359.59;;;41.32;20.28
54900;BME280;40801;41.924;25.562;2022-07-01T10:31:13;99361.34;;;41.69;20.18
54900;BME280;40801;41.924;25.562;2022-07-01T10:33:48;99358.41;;;41.91;19.70
54900;BME280;40801;41.924;25.562;2022-07-01T10:36:29;99359.47;;;41.88;19.17
54900;BME280;40801;41.924;25.562;2022-07-01T10:41:41;99348.59;;;42.03;19.02
54900;BME280;40801;41.924;25.562;2022-07-01T10:44:14;99343.75;;;41.93;19.37
54900;BME280;40801;41.924;25.562;2022-07-01T10:47:01;99349.75;;;41.56;18.54
54900;BME280;40801;41.924;25.562;2022-07-01T10:59:46;99333.25;;;42.34;18.48
54900;BME280;40801;41.924;25.562;2022-07-01T11:02:25;99331.94;;;42.35;18.08
54900;BME280;40801;41.924;25.562;2022-07-01T11:04:56;99326.72;;;42.51;18.75
54900;BME280;40801;41.924;25.562;2022-07-01T11:07:26;99323.03;;;42.61;18.36
54900;BME280;40801;41.924;25.562;2022-07-01T11:09:53;99311.94;;;42.93;18.35
54900;BME280;40801;41.924;25.562;2022-07-01T11:12:20;99302.50;;;42.44;18.25
54900;BME280;40801;41.924;25.562;2022-07-01T11:14:47;99300.06;;;42.24;18.80
54900;BME280;40801;41.924;25.562;2022-07-01T11:17:13;99301.19;;;42.51;18.14
54900;BME280;40801;41.924;25.562;2022-07-01T11:19:38;99304.03;;;42.45;18.21
54900;BME280;40801;41.924;25.562;2022-07-01T11:22:04;99296.44;;;42.64;17.85
54900;BME280;40801;41.924;25.562;2022-07-01T11:24:31;99301.97;;;42.51;17.54
54900;BME280;40801;41.924;25.562;2022-07-01T11:27:05;99292.31;;;42.95;17.39
54900;BME280;40801;41.924;25.562;2022-07-01T11:29:31;99294.00;;;42.80;17.38
54900;BME280;40801;41.924;25.562;2022-07-01T11:31:56;99293.56;;;43.00;17.62
54900;BME280;40801;41.924;25.562;2022-07-01T11:34:22;99294.25;;;43.36;17.57
54900;BME280;40801;41.924;25.562;2022-07-01T11:36:48;99290.63;;;43.36;17.64
54900;BME280;40801;41.924;25.562;2022-07-01T11:39:33;99287.84;;;43.54;17.77
54900;BME280;40801;41.924;25.562;2022-07-01T11:42:04;99288.59;;;43.79;16.97
54900;BME280;40801;41.924;25.562;2022-07-01T11:44:36;99290.59;;;44.03;17.19
54900;BME280;40801;41.924;25.562;2022-07-01T11:47:22;99288.69;;;44.11;17.12
54900;BME280;40801;41.924;25.562;2022-07-01T11:49:49;99287.81;;;44.16;16.70
54900;BME280;40801;41.924;25.562;2022-07-01T11:52:15;99283.81;;;43.20;17.24
54900;BME280;40801;41.924;25.562;2022-07-01T11:54:44;99283.50;;;42.99;17.64
54900;BME280;40801;41.924;25.562;2022-07-01T11:57:16;99281.78;;;43.64;18.20
54900;BME280;40801;41.924;25.562;2022-07-01T11:59:43;99280.75;;;43.85;18.29
54900;BME280;40801;41.924;25.562;2022-07-01T12:02:10;99275.22;;;43.93;17.50
54900;BME280;40801;41.924;25.562;2022-07-01T12:04:37;99276.53;;;43.24;17.69
54900;BME280;40801;41.924;25.562;2022-07-01T12:07:03;99274.09;;;43.40;17.08
54900;BME280;40801;41.924;25.562;2022-07-01T12:09:30;99267.88;;;43.41;17.56
54900;BME280;40801;41.924;25.562;2022-07-01T12:11:56;99265.50;;;43.64;17.38
54900;BME280;40801;41.924;25.562;2022-07-01T12:14:35;99266.22;;;43.89;16.53
54900;BME280;40801;41.924;25.562;2022-07-01T12:17:05;99262.38;;;43.86;16.70
54900;BME280;40801;41.924;25.562;2022-07-01T12:19:44;99259.41;;;43.79;16.71
54900;BME280;40801;41.924;25.562;2022-07-01T12:22:19;99257.34;;;43.55;17.74
54900;BME280;40801;41.924;25.562;2022-07-01T12:24:46;99250.63;;;42.55;18.31
54900;BME280;40801;41.924;25.562;2022-07-01T12:27:12;99257.56;;;42.18;18.56
54900;BME280;40801;41.924;25.562;2022-07-01T12:32:16;99257.47;;;41.02;19.81
54900;BME280;40801;41.924;25.562;2022-07-01T12:37:20;99251.53;;;40.00;20.85
54900;BME280;40801;41.924;25.562;2022-07-01T12:39:48;99251.50;;;39.34;21.84
54900;BME280;40801;41.924;25.562;2022-07-01T12:42:26;99256.13;;;38.37;22.43
54900;BME280;40801;41.924;25.562;2022-07-01T12:44:52;99262.19;;;37.84;23.64
54900;BME280;40801;41.924;25.562;2022-07-01T12:47:30;99257.06;;;37.62;24.22
54900;BME280;40801;41.924;25.562;2022-07-01T12:52:43;99262.47;;;37.10;25.11
54900;BME280;40801;41.924;25.562;2022-07-01T12:55:21;99259.91;;;36.92;26.00
54900;BME280;40801;41.924;25.562;2022-07-01T12:57:48;99260.50;;;36.67;25.76
54900;BME280;40801;41.924;25.562;2022-07-01T13:00:18;99271.38;;;36.44;25.94
54900;BME280;40801;41.924;25.562;2022-07-01T13:02:44;99282.03;;;36.02;27.72
54900;BME280;40801;41.924;25.562;2022-07-01T13:05:10;99269.91;;;35.57;28.67
54900;BME280;40801;41.924;25.562;2022-07-01T13:07:36;99269.44;;;34.92;32.34
54900;BME280;40801;41.924;25.562;2022-07-01T13:10:02;99270.44;;;34.71;33.91
54900;BME280;40801;41.924;25.562;2022-07-01T13:12:28;99271.31;;;34.16;35.53
54900;BME280;40801;41.924;25.562;2022-07-01T13:14:53;99264.13;;;34.25;36.11
54900;BME280;40801;41.924;25.562;2022-07-01T13:17:20;99265.09;;;34.12;36.05
54900;BME280;40801;41.924;25.562;2022-07-01T13:19:47;99267.13;;;34.12;37.19
54900;BME280;40801;41.924;25.562;2022-07-01T13:22:14;99269.75;;;34.15;37.83
54900;BME280;40801;41.924;25.562;2022-07-01T13:24:39;99266.16;;;34.42;37.84
54900;BME280;40801;41.924;25.562;2022-07-01T13:27:05;99256.91;;;35.12;36.93